sensor_id;sensor_type;location;lat;lon;timestamp;pressure;altitude;pressure_sealevel;temperature;humidity
4767;BME280;2397;53.576;9.746;2023-05-25T00:02:21;102506.41;;;10.25;80.98
4767;BME280;2397;53.576;9.746;2023-05-25T00:04:50;102504.50;;;10.14;80.98
4767;BME280;2397;53.576;9.746;2023-05-25T00:07:17;102506.28;;;10.14;80.92
4767;BME280;2397;53.576;9.746;2023-05-25T00:09:44;102512.28;;;10.16;80.88
4767;BME280;2397;53.576;9.746;2023-05-25T00:12:13;102503.00;;;10.10;81.04
4767;BME280;2397;53.576;9.746;2023-05-25T00:14:39;102509.25;;;10.09;81.12
4767;BME280;2397;53.576;9.746;2023-05-25T00:17:06;102509.25;;;10.09;81.07
4767;BME280;2397;53.576;9.746;2023-05-25T00:19:36;102506.59;;;10.09;81.18
4767;BME280;2397;53.576;9.746;2023-05-25T00:22:03;102509.25;;;10.09;81.51
4767;BME280;2397;53.576;9.746;2023-05-25T00:24:30;102508.78;;;10.03;81.57
4767;BME280;2397;53.576;9.746;2023-05-25T00:26:57;102507.75;;;10.05;81.09
4767;BME280;2397;53.576;9.746;2023-05-25T00:29:24;102498.91;;;10.06;81.54
4767;BME280;2397;53.576;9.746;2023-05-25T00:31:52;102502.88;;;9.99;81.27
4767;BME280;2397;53.576;9.746;2023-05-25T00:34:18;102495.59;;;10.03;81.83
4767;BME280;2397;53.576;9.746;2023-05-25T00:36:47;102496.56;;;10.02;81.41
4767;BME280;2397;53.576;9.746;2023-05-25T00:39:14;102498.75;;;9.95;81.96
4767;BME280;2397;53.576;9.746;2023-05-25T00:41:45;102509.09;;;9.98;81.95
4767;BME280;2397;53.576;9.746;2023-05-25T00:44:14;102497.16;;;9.93;81.21
4767;BME280;2397;53.576;9.746;2023-05-25T00:46:49;102501.09;;;10.00;81.61
4767;BME280;2397;53.576;9.746;2023-05-25T00:49:18;102503.81;;;9.86;82.28
4767;BME280;2397;53.576;9.746;2023-05-25T00:51:46;102495.69;;;9.89;82.28
4767;BME280;2397;53.576;9.746;2023-05-25T00:54:14;102491.38;;;9.88;81.83
4767;BME280;2397;53.576;9.746;2023-05-25T00:56:55;102503.19;;;9.82;81.86
4767;BME280;2397;53.576;9.746;2023-05-25T00:59:31;102497.72;;;9.85;82.00
4767;BME280;2397;53.576;9.746;2023-05-25T01:02:11;102500.84;;;9.78;82.08
4767;BME280;2397;53.576;9.746;2023-05-25T01:04:44;102503.59;;;9.76;81.72
4767;BME280;2397;53.576;9.746;2023-05-25T01:07:17;102507.19;;;9.75;82.14
4767;BME280;2397;53.576;9.746;2023-05-25T01:09:44;102506.31;;;9.75;82.03
4767;BME280;2397;53.576;9.746;2023-05-25T01:12:13;102504.94;;;9.69;82.66
4767;BME280;2397;53.576;9.746;2023-05-25T01:14:41;102500.44;;;9.71;82.94
4767;BME280;2397;53.576;9.746;2023-05-25T01:17:09;102503.25;;;9.68;82.68
4767;BME280;2397;53.576;9.746;2023-05-25T01:19:35;102508.22;;;9.73;82.16
4767;BME280;2397;53.576;9.746;2023-05-25T01:22:27;102505.03;;;9.68;81.94
4767;BME280;2397;53.576;9.746;2023-05-25T01:25:02;102505.00;;;9.55;81.62
4767;BME280;2397;53.576;9.746;2023-05-25T01:27:34;102506.63;;;9.58;82.42
4767;BME280;2397;53.576;9.746;2023-05-25T01:30:09;102502.50;;;9.54;82.26
4767;BME280;2397;53.576;9.746;2023-05-25T01:32:39;102505.56;;;9.60;82.43
4767;BME280;2397;53.576;9.746;2023-05-25T01:35:07;102505.25;;;9.52;81.99
4767;BME280;2397;53.576;9.746;2023-05-25T01:37:35;102510.50;;;9.52;82.14
4767;BME280;2397;53.576;9.746;2023-05-25T01:40:03;102507.63;;;9.55;82.18
4767;BME280;2397;53.576;9.746;2023-05-25T01:42:34;102510.69;;;9.49;82.17
4767;BME280;2397;53.576;9.746;2023-05-25T01:45:03;102508.06;;;9.49;82.00
4767;BME280;2397;53.576;9.746;2023-05-25T01:47:56;102502.03;;;9.47;82.44
4767;BME280;2397;53.576;9.746;2023-05-25T01:50:40;102511.13;;;9.56;82.71
4767;BME280;2397;53.576;9.746;2023-05-25T01:53:09;102512.38;;;9.50;82.76
4767;BME280;2397;53.576;9.746;2023-05-25T01:55:46;102507.63;;;9.55;83.48
4767;BME280;2397;53.576;9.746;2023-05-25T01:58:14;102501.03;;;9.62;83.78
4767;BME280;2397;53.576;9.746;2023-05-25T02:00:42;102505.38;;;9.63;84.16
4767;BME280;2397;53.576;9.746;2023-05-25T02:03:10;102496.59;;;9.63;84.02
4767;BME280;2397;53.576;9.746;2023-05-25T02:05:40;102500.91;;;9.64;83.20
4767;BME280;2397;53.576;9.746;2023-05-25T02:08:07;102494.94;;;9.62;83.32
4767;BME280;2397;53.576;9.746;2023-05-25T02:10:34;102494.72;;;9.65;83.77
4767;BME280;2397;53.576;9.746;2023-05-25T02:13:00;102502.31;;;9.69;83.97
4767;BME280;2397;53.576;9.746;2023-05-25T02:15:30;102503.47;;;9.65;84.29
4767;BME280;2397;53.576;9.746;2023-05-25T02:17:58;102499.13;;;9.64;84.35
4767;BME280;2397;53.576;9.746;2023-05-25T02:20:28;102505.91;;;9.68;84.45
4767;BME280;2397;53.576;9.746;2023-05-25T02:22:55;102496.22;;;9.69;84.31
4767;BME280;2397;53.576;9.746;2023-05-25T02:25:22;102504.63;;;9.61;83.92
4767;BME280;2397;53.576;9.746;2023-05-25T02:27:49;102502.72;;;9.63;83.65
4767;BME280;2397;53.576;9.746;2023-05-25T02:30:16;102503.66;;;9.62;83.63
4767;BME280;2397;53.576;9.746;2023-05-25T02:32:42;102501.34;;;9.58;83.63
4767;BME280;2397;53.576;9.746;2023-05-25T02:35:09;102506.16;;;9.51;83.39
4767;BME280;2397;53.576;9.746;2023-05-25T02:37:36;102505.63;;;9.46;83.56
4767;BME280;2397;53.576;9.746;2023-05-25T02:40:04;102504.16;;;9.42;83.28
4767;BME280;2397;53.576;9.746;2023-05-25T02:42:31;102507.72;;;9.41;83.13
4767;BME280;2397;53.576;9.746;2023-05-25T02:44:58;102509.41;;;9.42;82.73
4767;BME280;2397;53.576;9.746;2023-05-25T02:47:24;102505.28;;;9.38;83.32
4767;BME280;2397;53.576;9.746;2023-05-25T02:49:51;102506.25;;;9.37;83.20
4767;BME280;2397;53.576;9.746;2023-05-25T02:52:18;102518.03;;;9.32;83.67
4767;BME280;2397;53.576;9.746;2023-05-25T02:54:45;102522.69;;;9.41;84.05
4767;BME280;2397;53.576;9.746;2023-05-25T02:57:18;102512.47;;;9.49;84.05
4767;BME280;2397;53.576;9.746;2023-05-25T02:59:45;102520.72;;;9.57;84.53
4767;BME280;2397;53.576;9.746;2023-05-25T03:02:12;102522.47;;;9.70;85.26
4767;BME280;2397;53.576;9.746;2023-05-25T03:04:38;102524.28;;;9.82;85.54
4767;BME280;2397;53.576;9.746;2023-05-25T03:07:07;102524.38;;;9.81;86.65
4767;BME280;2397;53.576;9.746;2023-05-25T03:09:34;102526.72;;;9.85;86.67
4767;BME280;2397;53.576;9.746;2023-05-25T03:12:02;102534.19;;;9.91;86.95
4767;BME280;2397;53.576;9.746;2023-05-25T03:14:28;102530.94;;;9.88;87.21
4767;BME280;2397;53.576;9.746;2023-05-25T03:17:01;102532.09;;;9.84;87.43
4767;BME280;2397;53.576;9.746;2023-05-25T03:19:28;102529.94;;;9.76;87.33
4767;BME280;2397;53.576;9.746;2023-05-25T03:21:55;102536.38;;;9.72;87.16
4767;BME280;2397;53.576;9.746;2023-05-25T03:24:21;102539.22;;;9.69;87.61
4767;BME280;2397;53.576;9.746;2023-05-25T03:26:48;102546.59;;;9.64;87.32
4767;BME280;2397;53.576;9.746;2023-05-25T03:29:16;102541.31;;;9.64;87.53
4767;BME280;2397;53.576;9.746;2023-05-25T03:31:42;102537.34;;;9.71;87.73
4767;BME280;2397;53.576;9.746;2023-05-25T03:34:09;102545.78;;;9.76;87.23
4767;BME280;2397;53.576;9.746;2023-05-25T03:36:37;102545.38;;;9.82;86.62
4767;BME280;2397;53.576;9.746;2023-05-25T03:39:05;102543.69;;;9.81;86.50
4767;BME280;2397;53.576;9.746;2023-05-25T03:41:32;102540.41;;;9.78;85.92
4767;BME280;2397;53.576;9.746;2023-05-25T03:43:59;102545.97;;;9.73;86.14
4767;BME280;2397;53.576;9.746;2023-05-25T03:46:25;102550.94;;;9.78;86.63
4767;BME280;2397;53.576;9.746;2023-05-25T03:48:55;102559.84;;;9.89;86.31
4767;BME280;2397;53.576;9.746;2023-05-25T03:51:21;102557.41;;;9.86;86.74
4767;BME280;2397;53.576;9.746;2023-05-25T03:53:48;102562.88;;;9.83;86.92
4767;BME280;2397;53.576;9.746;2023-05-25T03:56:14;102560.38;;;9.94;87.21
4767;BME280;2397;53.576;9.746;2023-05-25T03:58:41;102562.91;;;9.96;87.14
4767;BME280;2397;53.576;9.746;2023-05-25T04:01:07;102565.88;;;10.04;87.15
4767;BME280;2397;53.576;9.746;2023-05-25T04:03:35;102568.25;;;10.08;87.51
4767;BME280;2397;53.576;9.746;2023-05-25T04:06:02;102570.13;;;10.06;87.53
4767;BME280;2397;53.576;9.746;2023-05-25T04:08:29;102568.66;;;10.15;87.70
4767;BME280;2397;53.576;9.746;2023-05-25T04:10:56;102572.69;;;10.20;87.05
4767;BME280;2397;53.576;9.746;2023-05-25T04:13:23;102565.50;;;10.22;87.52
4767;BME280;2397;53.576;9.746;2023-05-25T04:15:49;102581.34;;;10.22;86.99
4767;BME280;2397;53.576;9.746;2023-05-25T04:18:20;102573.75;;;10.30;87.32
4767;BME280;2397;53.576;9.746;2023-05-25T04:20:47;102574.06;;;10.26;86.93
4767;BME280;2397;53.576;9.746;2023-05-25T04:23:16;102570.91;;;10.33;86.95
4767;BME280;2397;53.576;9.746;2023-05-25T04:25:45;102569.44;;;10.29;86.60
4767;BME280;2397;53.576;9.746;2023-05-25T04:28:13;102577.22;;;10.31;86.46
4767;BME280;2397;53.576;9.746;2023-05-25T04:30:59;102582.63;;;10.29;86.23
4767;BME280;2397;53.576;9.746;2023-05-25T04:33:47;102579.13;;;10.29;86.57
4767;BME280;2397;53.576;9.746;2023-05-25T04:36:27;102577.97;;;10.33;86.39
4767;BME280;2397;53.576;9.746;2023-05-25T04:38:55;102584.94;;;10.34;86.46
4767;BME280;2397;53.576;9.746;2023-05-25T04:41:23;102589.59;;;10.30;86.19
4767;BME280;2397;53.576;9.746;2023-05-25T04:43:54;102584.72;;;10.24;86.23
4767;BME280;2397;53.576;9.746;2023-05-25T04:46:38;102588.31;;;10.23;86.63
4767;BME280;2397;53.576;9.746;2023-05-25T04:49:11;102593.19;;;10.29;86.52
4767;BME280;2397;53.576;9.746;2023-05-25T04:51:38;102605.41;;;10.30;86.69
4767;BME280;2397;53.576;9.746;2023-05-25T04:54:05;102600.88;;;10.32;86.14
4767;BME280;2397;53.576;9.746;2023-05-25T04:56:32;102604.75;;;10.27;86.46
4767;BME280;2397;53.576;9.746;2023-05-25T04:58:59;102597.91;;;10.24;86.50
4767;BME280;2397;53.576;9.746;2023-05-25T05:01:26;102602.34;;;10.36;86.08
4767;BME280;2397;53.576;9.746;2023-05-25T05:03:57;102603.19;;;10.37;86.33
4767;BME280;2397;53.576;9.746;2023-05-25T05:06:24;102603.63;;;10.43;85.75
4767;BME280;2397;53.576;9.746;2023-05-25T05:08:51;102593.28;;;10.41;85.91
4767;BME280;2397;53.576;9.746;2023-05-25T05:11:17;102600.88;;;10.45;85.95
4767;BME280;2397;53.576;9.746;2023-05-25T05:13:44;102601.94;;;10.55;85.83
4767;BME280;2397;53.576;9.746;2023-05-25T05:16:12;102607.13;;;10.57;85.80
4767;BME280;2397;53.576;9.746;2023-05-25T05:18:39;102607.44;;;10.52;85.35
4767;BME280;2397;53.576;9.746;2023-05-25T05:21:05;102609.00;;;10.55;85.76
4767;BME280;2397;53.576;9.746;2023-05-25T05:23:33;102611.53;;;10.69;85.36
4767;BME280;2397;53.576;9.746;2023-05-25T05:26:00;102618.31;;;10.73;85.07
4767;BME280;2397;53.576;9.746;2023-05-25T05:28:26;102627.59;;;10.78;85.14
4767;BME280;2397;53.576;9.746;2023-05-25T05:30:56;102618.31;;;10.73;84.93
4767;BME280;2397;53.576;9.746;2023-05-25T05:33:23;102620.09;;;10.85;84.69
4767;BME280;2397;53.576;9.746;2023-05-25T05:35:50;102629.63;;;10.87;84.57
4767;BME280;2397;53.576;9.746;2023-05-25T05:38:20;102622.72;;;10.97;84.69
4767;BME280;2397;53.576;9.746;2023-05-25T05:40:46;102619.75;;;11.02;84.52
4767;BME280;2397;53.576;9.746;2023-05-25T05:43:18;102628.09;;;11.08;84.59
4767;BME280;2397;53.576;9.746;2023-05-25T05:45:44;102622.47;;;11.13;84.37
4767;BME280;2397;53.576;9.746;2023-05-25T05:48:11;102622.78;;;11.21;83.90
4767;BME280;2397;53.576;9.746;2023-05-25T05:50:38;102629.63;;;11.23;83.64
4767;BME280;2397;53.576;9.746;2023-05-25T05:53:08;102631.97;;;11.28;82.67
4767;BME280;2397;53.576;9.746;2023-05-25T05:55:36;102626.47;;;11.31;82.67
4767;BME280;2397;53.576;9.746;2023-05-25T05:58:03;102634.88;;;11.36;81.85
4767;BME280;2397;53.576;9.746;2023-05-25T06:00:30;102641.22;;;11.46;82.33
4767;BME280;2397;53.576;9.746;2023-05-25T06:02:57;102626.22;;;11.46;81.82
4767;BME280;2397;53.576;9.746;2023-05-25T06:05:25;102632.44;;;11.45;80.93
4767;BME280;2397;53.576;9.746;2023-05-25T06:07:53;102630.63;;;11.46;81.14
4767;BME280;2397;53.576;9.746;2023-05-25T06:10:21;102628.06;;;11.57;81.60
4767;BME280;2397;53.576;9.746;2023-05-25T06:12:48;102633.44;;;11.68;80.99
4767;BME280;2397;53.576;9.746;2023-05-25T06:15:15;102630.59;;;11.71;80.75
4767;BME280;2397;53.576;9.746;2023-05-25T06:17:43;102630.63;;;11.82;80.43
4767;BME280;2397;53.576;9.746;2023-05-25T06:20:10;102626.06;;;11.84;79.94
4767;BME280;2397;53.576;9.746;2023-05-25T06:22:36;102630.78;;;11.91;79.51
4767;BME280;2397;53.576;9.746;2023-05-25T06:25:03;102633.16;;;11.83;78.36
4767;BME280;2397;53.576;9.746;2023-05-25T06:27:30;102628.47;;;11.87;78.01
4767;BME280;2397;53.576;9.746;2023-05-25T06:29:56;102632.81;;;11.88;77.29
4767;BME280;2397;53.576;9.746;2023-05-25T06:32:23;102635.00;;;11.94;76.19
4767;BME280;2397;53.576;9.746;2023-05-25T06:34:50;102635.16;;;12.03;76.23
4767;BME280;2397;53.576;9.746;2023-05-25T06:37:17;102629.31;;;12.11;76.07
4767;BME280;2397;53.576;9.746;2023-05-25T06:39:44;102639.19;;;12.20;75.39
4767;BME280;2397;53.576;9.746;2023-05-25T06:42:11;102639.81;;;12.23;75.35
4767;BME280;2397;53.576;9.746;2023-05-25T06:44:48;102636.81;;;12.28;74.29
4767;BME280;2397;53.576;9.746;2023-05-25T06:47:16;102651.28;;;12.35;74.60
4767;BME280;2397;53.576;9.746;2023-05-25T06:49:42;102658.06;;;12.50;74.94
4767;BME280;2397;53.576;9.746;2023-05-25T06:52:09;102657.47;;;12.57;74.58
4767;BME280;2397;53.576;9.746;2023-05-25T06:54:35;102659.06;;;12.71;73.08
4767;BME280;2397;53.576;9.746;2023-05-25T06:57:02;102647.50;;;12.94;72.29
4767;BME280;2397;53.576;9.746;2023-05-25T06:59:28;102652.75;;;13.06;71.46
4767;BME280;2397;53.576;9.746;2023-05-25T07:01:55;102651.41;;;13.12;71.22
4767;BME280;2397;53.576;9.746;2023-05-25T07:04:24;102654.06;;;13.12;70.10
4767;BME280;2397;53.576;9.746;2023-05-25T07:06:50;102652.16;;;13.14;70.19
4767;BME280;2397;53.576;9.746;2023-05-25T07:09:17;102650.69;;;13.32;70.04
4767;BME280;2397;53.576;9.746;2023-05-25T07:11:44;102655.03;;;13.33;68.82
4767;BME280;2397;53.576;9.746;2023-05-25T07:14:11;102643.53;;;13.43;69.95
4767;BME280;2397;53.576;9.746;2023-05-25T07:16:38;102660.66;;;13.39;70.32
4767;BME280;2397;53.576;9.746;2023-05-25T07:19:05;102659.13;;;13.26;68.94
4767;BME280;2397;53.576;9.746;2023-05-25T07:21:34;102659.88;;;13.17;68.27
4767;BME280;2397;53.576;9.746;2023-05-25T07:24:02;102670.19;;;13.42;68.56
4767;BME280;2397;53.576;9.746;2023-05-25T07:26:30;102666.06;;;13.60;66.72
4767;BME280;2397;53.576;9.746;2023-05-25T07:28:57;102662.91;;;13.66;66.85
4767;BME280;2397;53.576;9.746;2023-05-25T07:31:23;102657.38;;;13.69;65.98
4767;BME280;2397;53.576;9.746;2023-05-25T07:33:50;102657.03;;;13.94;67.54
4767;BME280;2397;53.576;9.746;2023-05-25T07:36:18;102667.41;;;13.97;65.89
4767;BME280;2397;53.576;9.746;2023-05-25T07:38:46;102665.94;;;13.61;65.04
4767;BME280;2397;53.576;9.746;2023-05-25T07:41:12;102673.06;;;13.39;66.64
4767;BME280;2397;53.576;9.746;2023-05-25T07:43:39;102672.63;;;13.23;66.40
4767;BME280;2397;53.576;9.746;2023-05-25T07:46:06;102669.38;;;13.41;66.66
4767;BME280;2397;53.576;9.746;2023-05-25T07:48:32;102670.53;;;13.59;66.39
4767;BME280;2397;53.576;9.746;2023-05-25T07:50:59;102676.25;;;13.87;67.29
4767;BME280;2397;53.576;9.746;2023-05-25T07:53:26;102676.16;;;14.09;66.06
4767;BME280;2397;53.576;9.746;2023-05-25T07:55:52;102671.91;;;14.28;65.62
4767;BME280;2397;53.576;9.746;2023-05-25T07:58:19;102674.03;;;14.34;64.72
4767;BME280;2397;53.576;9.746;2023-05-25T08:00:45;102676.34;;;14.28;63.67
4767;BME280;2397;53.576;9.746;2023-05-25T08:03:12;102681.84;;;13.73;64.17
4767;BME280;2397;53.576;9.746;2023-05-25T08:05:38;102683.66;;;13.50;62.79
4767;BME280;2397;53.576;9.746;2023-05-25T08:08:05;102686.91;;;13.64;64.67
4767;BME280;2397;53.576;9.746;2023-05-25T08:10:32;102682.13;;;13.90;63.96
4767;BME280;2397;53.576;9.746;2023-05-25T08:12:58;102691.34;;;14.18;62.80
4767;BME280;2397;53.576;9.746;2023-05-25T08:15:25;102683.09;;;14.32;61.61
4767;BME280;2397;53.576;9.746;2023-05-25T08:17:52;102690.69;;;14.36;60.62
4767;BME280;2397;53.576;9.746;2023-05-25T08:20:19;102690.75;;;14.46;60.17
4767;BME280;2397;53.576;9.746;2023-05-25T08:22:45;102685.25;;;14.58;60.57
4767;BME280;2397;53.576;9.746;2023-05-25T08:25:12;102704.75;;;14.48;59.71
4767;BME280;2397;53.576;9.746;2023-05-25T08:27:38;102693.47;;;14.55;58.87
4767;BME280;2397;53.576;9.746;2023-05-25T08:30:05;102687.31;;;14.55;59.96
4767;BME280;2397;53.576;9.746;2023-05-25T08:32:32;102688.16;;;14.76;59.93
4767;BME280;2397;53.576;9.746;2023-05-25T08:34:59;102688.78;;;15.09;59.76
4767;BME280;2397;53.576;9.746;2023-05-25T08:37:27;102694.59;;;15.33;59.06
4767;BME280;2397;53.576;9.746;2023-05-25T08:39:54;102691.22;;;15.01;59.22
4767;BME280;2397;53.576;9.746;2023-05-25T08:42:21;102697.25;;;14.73;60.06
4767;BME280;2397;53.576;9.746;2023-05-25T08:44:48;102698.72;;;14.46;61.79
4767;BME280;2397;53.576;9.746;2023-05-25T08:47:15;102694.63;;;14.10;60.04
4767;BME280;2397;53.576;9.746;2023-05-25T08:49:43;102700.84;;;14.20;60.75
4767;BME280;2397;53.576;9.746;2023-05-25T08:52:13;102691.19;;;14.30;60.04
4767;BME280;2397;53.576;9.746;2023-05-25T08:54:42;102702.81;;;14.50;62.32
4767;BME280;2397;53.576;9.746;2023-05-25T09:00:00;102701.53;;;14.65;60.06
4767;BME280;2397;53.576;9.746;2023-05-25T09:02:37;102703.31;;;15.05;60.73
4767;BME280;2397;53.576;9.746;2023-05-25T09:05:05;102700.53;;;14.66;59.33
4767;BME280;2397;53.576;9.746;2023-05-25T09:07:32;102705.53;;;14.59;60.86
4767;BME280;2397;53.576;9.746;2023-05-25T09:09:59;102710.00;;;14.79;60.05
4767;BME280;2397;53.576;9.746;2023-05-25T09:12:30;102708.78;;;14.83;58.41
4767;BME280;2397;53.576;9.746;2023-05-25T09:14:58;102710.91;;;14.89;57.61
4767;BME280;2397;53.576;9.746;2023-05-25T09:17:24;102713.47;;;15.00;57.97
4767;BME280;2397;53.576;9.746;2023-05-25T09:19:52;102710.00;;;15.00;55.44
4767;BME280;2397;53.576;9.746;2023-05-25T09:22:18;102717.53;;;14.74;56.70
4767;BME280;2397;53.576;9.746;2023-05-25T09:24:45;102720.34;;;15.03;57.95
4767;BME280;2397;53.576;9.746;2023-05-25T09:27:16;102713.22;;;15.33;57.22
4767;BME280;2397;53.576;9.746;2023-05-25T09:29:43;102723.38;;;15.39;56.85
4767;BME280;2397;53.576;9.746;2023-05-25T09:32:10;102720.22;;;15.34;57.03
4767;BME280;2397;53.576;9.746;2023-05-25T09:34:36;102724.72;;;15.64;55.67
4767;BME280;2397;53.576;9.746;2023-05-25T09:37:09;102722.94;;;15.83;54.18
4767;BME280;2397;53.576;9.746;2023-05-25T09:39:36;102736.97;;;16.04;57.40
4767;BME280;2397;53.576;9.746;2023-05-25T09:42:04;102713.19;;;16.31;54.41
4767;BME280;2397;53.576;9.746;2023-05-25T09:44:31;102725.91;;;15.99;54.27
4767;BME280;2397;53.576;9.746;2023-05-25T09:46:58;102730.09;;;15.92;56.08
4767;BME280;2397;53.576;9.746;2023-05-25T09:49:25;102724.97;;;16.29;55.76
4767;BME280;2397;53.576;9.746;2023-05-25T09:51:52;102722.88;;;16.51;53.63
4767;BME280;2397;53.576;9.746;2023-05-25T09:54:20;102711.22;;;16.71;52.48
4767;BME280;2397;53.576;9.746;2023-05-25T09:56:48;102724.56;;;16.43;53.57
4767;BME280;2397;53.576;9.746;2023-05-25T09:59:14;102720.59;;;16.18;52.86
4767;BME280;2397;53.576;9.746;2023-05-25T10:01:41;102724.28;;;16.55;54.64
4767;BME280;2397;53.576;9.746;2023-05-25T10:04:09;102728.16;;;16.80;55.42
4767;BME280;2397;53.576;9.746;2023-05-25T10:06:37;102726.03;;;17.03;54.51
4767;BME280;2397;53.576;9.746;2023-05-25T10:09:05;102719.50;;;16.68;52.36
4767;BME280;2397;53.576;9.746;2023-05-25T10:11:34;102722.28;;;16.76;54.20
4767;BME280;2397;53.576;9.746;2023-05-25T10:14:05;102713.72;;;16.83;51.96
4767;BME280;2397;53.576;9.746;2023-05-25T10:16:33;102718.09;;;16.74;53.58
4767;BME280;2397;53.576;9.746;2023-05-25T10:19:05;102725.41;;;16.43;54.40
4767;BME280;2397;53.576;9.746;2023-05-25T10:21:34;102729.16;;;16.12;54.68
4767;BME280;2397;53.576;9.746;2023-05-25T10:24:05;102725.53;;;16.51;52.52
4767;BME280;2397;53.576;9.746;2023-05-25T10:26:39;102726.13;;;16.45;52.19
4767;BME280;2397;53.576;9.746;2023-05-25T10:29:08;102720.63;;;16.75;53.97
4767;BME280;2397;53.576;9.746;2023-05-25T10:31:36;102729.22;;;17.16;52.09
4767;BME280;2397;53.576;9.746;2023-05-25T10:34:03;102721.31;;;17.24;50.42
4767;BME280;2397;53.576;9.746;2023-05-25T10:36:32;102720.75;;;17.20;50.79
4767;BME280;2397;53.576;9.746;2023-05-25T10:38:59;102729.44;;;16.28;51.21
4767;BME280;2397;53.576;9.746;2023-05-25T10:41:27;102740.00;;;16.58;52.58
4767;BME280;2397;53.576;9.746;2023-05-25T10:43:54;102724.22;;;16.94;51.04
4767;BME280;2397;53.576;9.746;2023-05-25T10:46:21;102723.34;;;17.03;50.34
4767;BME280;2397;53.576;9.746;2023-05-25T10:48:49;102737.41;;;16.95;52.97
4767;BME280;2397;53.576;9.746;2023-05-25T10:51:20;102733.88;;;17.04;51.85
4767;BME280;2397;53.576;9.746;2023-05-25T10:53:57;102729.91;;;17.18;49.97
4767;BME280;2397;53.576;9.746;2023-05-25T10:56:25;102729.44;;;16.76;51.30
4767;BME280;2397;53.576;9.746;2023-05-25T10:58:51;102735.75;;;16.84;51.62
4767;BME280;2397;53.576;9.746;2023-05-25T11:01:18;102727.00;;;17.38;51.54
4767;BME280;2397;53.576;9.746;2023-05-25T11:09:05;102710.13;;;18.19;48.20
4767;BME280;2397;53.576;9.746;2023-05-25T11:17:07;102711.19;;;18.86;46.65
4767;BME280;2397;53.576;9.746;2023-05-25T11:19:41;102703.69;;;18.47;47.29
4767;BME280;2397;53.576;9.746;2023-05-25T11:22:19;102711.97;;;18.79;48.60
4767;BME280;2397;53.576;9.746;2023-05-25T11:24:47;102708.75;;;18.75;46.70
4767;BME280;2397;53.576;9.746;2023-05-25T11:27:14;102705.16;;;18.41;47.88
4767;BME280;2397;53.576;9.746;2023-05-25T11:29:41;102703.75;;;18.72;49.84
4767;BME280;2397;53.576;9.746;2023-05-25T11:32:11;102694.13;;;19.13;46.82
4767;BME280;2397;53.576;9.746;2023-05-25T11:34:39;102692.28;;;19.13;43.90
4767;BME280;2397;53.576;9.746;2023-05-25T11:37:16;102685.53;;;18.76;44.40
4767;BME280;2397;53.576;9.746;2023-05-25T11:39:47;102685.94;;;18.38;44.87
4767;BME280;2397;53.576;9.746;2023-05-25T11:42:16;102688.34;;;18.49;46.98
4767;BME280;2397;53.576;9.746;2023-05-25T11:44:42;102695.28;;;19.10;47.41
4767;BME280;2397;53.576;9.746;2023-05-25T11:47:10;102699.50;;;19.46;45.37
4767;BME280;2397;53.576;9.746;2023-05-25T11:49:40;102693.44;;;19.94;45.18
4767;BME280;2397;53.576;9.746;2023-05-25T11:52:07;102686.41;;;19.85;45.30
4767;BME280;2397;53.576;9.746;2023-05-25T11:54:34;102690.91;;;19.84;44.42
4767;BME280;2397;53.576;9.746;2023-05-25T11:57:02;102689.72;;;19.79;45.58
4767;BME280;2397;53.576;9.746;2023-05-25T11:59:29;102678.59;;;20.40;44.57
4767;BME280;2397;53.576;9.746;2023-05-25T12:02:02;102684.31;;;20.61;43.95
4767;BME280;2397;53.576;9.746;2023-05-25T12:04:30;102685.66;;;20.17;45.02
4767;BME280;2397;53.576;9.746;2023-05-25T12:07:02;102679.09;;;20.67;45.15
4767;BME280;2397;53.576;9.746;2023-05-25T12:09:29;102672.38;;;20.63;42.16
4767;BME280;2397;53.576;9.746;2023-05-25T12:11:56;102682.09;;;20.96;44.75
4767;BME280;2397;53.576;9.746;2023-05-25T12:14:23;102678.94;;;21.31;41.28
4767;BME280;2397;53.576;9.746;2023-05-25T12:16:50;102669.28;;;21.45;40.27
4767;BME280;2397;53.576;9.746;2023-05-25T12:19:17;102666.31;;;20.69;41.77
4767;BME280;2397;53.576;9.746;2023-05-25T12:21:44;102660.66;;;20.48;41.88
4767;BME280;2397;53.576;9.746;2023-05-25T12:24:11;102669.88;;;20.62;42.98
4767;BME280;2397;53.576;9.746;2023-05-25T12:26:49;102671.22;;;21.28;43.13
4767;BME280;2397;53.576;9.746;2023-05-25T12:29:16;102662.66;;;20.70;41.65
4767;BME280;2397;53.576;9.746;2023-05-25T12:31:43;102664.81;;;20.67;41.29
4767;BME280;2397;53.576;9.746;2023-05-25T12:34:11;102666.00;;;21.35;40.65
4767;BME280;2397;53.576;9.746;2023-05-25T12:36:48;102665.63;;;21.46;40.58
4767;BME280;2397;53.576;9.746;2023-05-25T12:41:58;102659.53;;;21.21;39.98
4767;BME280;2397;53.576;9.746;2023-05-25T12:47:16;102656.50;;;21.16;41.60
4767;BME280;2397;53.576;9.746;2023-05-25T12:49:50;102651.91;;;20.70;40.98
4767;BME280;2397;53.576;9.746;2023-05-25T12:52:36;102647.03;;;21.28;40.46
4767;BME280;2397;53.576;9.746;2023-05-25T12:55:23;102644.69;;;21.72;40.03
4767;BME280;2397;53.576;9.746;2023-05-25T12:57:57;102648.84;;;21.74;40.32
4767;BME280;2397;53.576;9.746;2023-05-25T13:02:53;102649.28;;;21.17;40.80
4767;BME280;2397;53.576;9.746;2023-05-25T13:05:25;102642.91;;;21.18;41.03
4767;BME280;2397;53.576;9.746;2023-05-25T13:07:53;102635.19;;;20.44;42.84
4767;BME280;2397;53.576;9.746;2023-05-25T13:10:20;102642.88;;;20.47;43.19
4767;BME280;2397;53.576;9.746;2023-05-25T13:12:48;102648.88;;;21.36;43.35
4767;BME280;2397;53.576;9.746;2023-05-25T13:15:17;102639.34;;;21.86;40.97
4767;BME280;2397;53.576;9.746;2023-05-25T13:17:50;102629.88;;;22.35;38.88
4767;BME280;2397;53.576;9.746;2023-05-25T13:20:19;102642.69;;;22.11;40.14
4767;BME280;2397;53.576;9.746;2023-05-25T13:22:48;102637.44;;;21.72;40.84
4767;BME280;2397;53.576;9.746;2023-05-25T13:25:15;102636.69;;;22.09;41.57
4767;BME280;2397;53.576;9.746;2023-05-25T13:27:43;102632.84;;;21.81;40.98
4767;BME280;2397;53.576;9.746;2023-05-25T13:30:11;102633.31;;;21.54;42.13
4767;BME280;2397;53.576;9.746;2023-05-25T13:32:38;102629.88;;;21.68;42.88
4767;BME280;2397;53.576;9.746;2023-05-25T13:35:06;102623.84;;;21.96;39.62
4767;BME280;2397;53.576;9.746;2023-05-25T13:37:33;102619.94;;;21.46;41.27
4767;BME280;2397;53.576;9.746;2023-05-25T13:40:00;102622.06;;;22.26;41.12
4767;BME280;2397;53.576;9.746;2023-05-25T13:42:26;102631.53;;;23.17;42.29